createdAt,value
2023-03-15T00:03:58.664Z,76.33
2023-03-15T00:09:01.685Z,76.59
2023-03-15T00:14:03.605Z,76.29
2023-03-15T00:19:05.596Z,76.38
2023-03-15T00:24:07.766Z,76.48
2023-03-15T00:29:10.385Z,76.58
2023-03-15T00:34:14.085Z,76.71
2023-03-15T00:39:16.293Z,76.81
2023-03-15T00:44:18.078Z,76.98
2023-03-15T00:49:20.876Z,77.09
2023-03-15T00:54:24.613Z,77.32
2023-03-15T00:59:37.420Z,77.27
2023-03-15T01:04:39.821Z,77.48
2023-03-15T01:09:44.156Z,77.37
2023-03-15T01:14:47.638Z,77.66
2023-03-15T01:19:52.087Z,77.62
2023-03-15T01:24:55.138Z,77.89
2023-03-15T01:29:57.840Z,78.15
2023-03-15T01:35:00.735Z,77.90
2023-03-15T01:40:06.585Z,77.84
2023-03-15T01:45:48.863Z,78.00
2023-03-15T01:50:54.293Z,78.04
2023-03-15T01:55:58.271Z,77.94
2023-03-15T02:01:01.628Z,77.80
2023-03-15T02:06:09.602Z,77.95
2023-03-15T02:11:14.484Z,77.72
2023-03-15T02:16:19.746Z,77.60
2023-03-15T02:21:55.315Z,77.58
2023-03-15T02:26:58.530Z,77.67
2023-03-15T02:32:04.642Z,77.50
2023-03-15T02:37:07.932Z,77.35
2023-03-15T02:42:11.292Z,77.55
2023-03-15T02:47:19.417Z,77.57
2023-03-15T02:52:23.330Z,77.39
2023-03-15T02:57:25.708Z,77.27
2023-03-15T03:02:28.755Z,77.34
2023-03-15T03:07:32.291Z,77.26
2023-03-15T03:12:34.139Z,77.12
2023-03-15T03:17:37.276Z,77.10
2023-03-15T03:22:41.860Z,77.12
2023-03-15T03:27:43.883Z,77.00
2023-03-15T03:32:45.833Z,76.88
2023-03-15T03:37:48.470Z,76.51
2023-03-15T03:42:50.715Z,76.93
2023-03-15T03:47:54.243Z,77.22
2023-03-15T03:52:56.322Z,77.06
2023-03-15T03:57:58.126Z,76.85
2023-03-15T04:03:02.033Z,76.89
2023-03-15T04:08:05.626Z,76.73
2023-03-15T04:13:08.867Z,77.08
2023-03-15T04:18:12.499Z,77.07
2023-03-15T04:23:22.076Z,76.98
2023-03-15T04:28:24.915Z,76.59
2023-03-15T04:33:32.877Z,77.02
2023-03-15T04:38:35.495Z,76.80
2023-03-15T04:43:38.936Z,77.12
2023-03-15T04:48:41.168Z,76.71
2023-03-15T04:53:43.555Z,76.49
2023-03-15T04:58:46.040Z,76.81
2023-03-15T05:03:49.165Z,76.72
2023-03-15T05:08:52.334Z,76.72
2023-03-15T05:13:55.575Z,76.78
2023-03-15T05:18:57.927Z,77.01
2023-03-15T05:24:00.011Z,77.06
2023-03-15T05:29:03.633Z,76.84
2023-03-15T05:34:06.891Z,76.81
2023-03-15T05:39:09.849Z,77.02
2023-03-15T05:44:11.927Z,77.11
2023-03-15T05:49:14.355Z,77.10
2023-03-15T05:54:17.286Z,76.89
2023-03-15T05:59:20.174Z,76.84
2023-03-15T06:04:23.753Z,76.68
2023-03-15T06:09:26.359Z,76.63
2023-03-15T06:14:29.034Z,76.52
2023-03-15T06:19:31.380Z,76.16
2023-03-15T06:24:34.156Z,76.14
2023-03-15T06:29:36.576Z,76.06
2023-03-15T06:34:38.885Z,75.61
2023-03-15T06:39:41.250Z,75.38
2023-03-15T06:44:44.221Z,75.46
2023-03-15T06:49:50.411Z,75.15
2023-03-15T06:54:53.055Z,75.32
2023-03-15T06:59:57.188Z,75.11
2023-03-15T07:04:59.681Z,74.65
2023-03-15T07:10:02.318Z,74.47
2023-03-15T07:15:05.567Z,74.53
2023-03-15T07:20:09.234Z,74.24
2023-03-15T07:25:11.819Z,74.24
2023-03-15T07:30:14.550Z,73.97
2023-03-15T07:35:17.983Z,73.88
2023-03-15T07:40:21.912Z,73.70
2023-03-15T07:45:24.087Z,73.48
2023-03-15T07:50:27.027Z,72.95
2023-03-15T07:55:29.412Z,72.83
2023-03-15T08:00:32.244Z,73.02
2023-03-15T08:05:35.617Z,72.76
2023-03-15T08:10:38.030Z,72.47
2023-03-15T08:15:42.095Z,72.46
2023-03-15T08:20:46.436Z,72.55
2023-03-15T08:25:49.849Z,72.58
2023-03-15T08:30:52.243Z,72.27
2023-03-15T08:35:54.628Z,72.09
2023-03-15T08:40:57.939Z,71.79
2023-03-15T08:46:01.935Z,71.86
2023-03-15T08:51:07.926Z,71.76
2023-03-15T08:56:11.211Z,71.84
2023-03-15T09:01:16.164Z,71.35
2023-03-15T09:06:18.954Z,71.39
2023-03-15T09:11:22.360Z,71.20
2023-03-15T09:16:25.142Z,70.42
2023-03-15T09:21:28.421Z,69.62
2023-03-15T09:26:30.828Z,69.49
2023-03-15T09:31:32.886Z,68.90
2023-03-15T09:36:35.310Z,68.55
2023-03-15T09:41:54.891Z,68.17
2023-03-15T09:47:09.902Z,67.88
2023-03-15T09:52:43.928Z,66.88
2023-03-15T10:03:48.426Z,66.23
2023-03-15T10:08:57.357Z,65.94
2023-03-15T10:14:22.577Z,65.78
2023-03-15T10:19:27.527Z,65.51
2023-03-15T10:24:50.088Z,65.23
2023-03-15T10:29:58.875Z,64.83
2023-03-15T10:35:10.132Z,64.76
2023-03-15T10:40:19.506Z,64.29
2023-03-15T10:45:26.550Z,63.57
2023-03-15T10:50:35.525Z,63.43
2023-03-15T10:55:47.229Z,63.47
2023-03-15T11:00:59.503Z,63.57
2023-03-15T11:06:19.077Z,63.29
2023-03-15T11:11:22.515Z,63.23
2023-03-15T11:16:26.401Z,63.18
2023-03-15T11:21:35.931Z,63.55
2023-03-15T11:26:41.790Z,63.03
2023-03-15T11:31:46.004Z,62.74
2023-03-15T11:37:07.521Z,62.93
2023-03-15T11:42:21.072Z,62.23
2023-03-15T11:47:38.266Z,62.28
2023-03-15T11:52:43.658Z,62.01
2023-03-15T11:57:49.825Z,62.12
2023-03-15T12:02:59.638Z,61.87
2023-03-15T12:08:25.639Z,61.58
2023-03-15T12:13:32.531Z,61.64
2023-03-15T12:18:46.598Z,61.66
2023-03-15T12:24:07.593Z,61.13
2023-03-15T12:29:14.549Z,60.76
2023-03-15T12:34:40.255Z,60.33
2023-03-15T12:40:01.407Z,60.54
2023-03-15T12:45:18.169Z,60.24
2023-03-15T12:50:54.127Z,59.78
2023-03-15T12:56:20.829Z,60.25
2023-03-15T13:01:26.395Z,59.82
2023-03-15T13:06:52.683Z,59.63
2023-03-15T13:12:09.133Z,59.95
2023-03-15T13:17:50.345Z,59.17
2023-03-15T13:22:58.333Z,58.87
2023-03-15T13:28:23.341Z,58.74
2023-03-15T13:33:32.101Z,58.49
2023-03-15T13:38:45.707Z,58.64
2023-03-15T13:43:53.920Z,58.99
2023-03-15T13:49:01.386Z,59.15
2023-03-15T13:54:21.493Z,58.84
2023-03-15T13:59:33.951Z,58.45
2023-03-15T14:04:38.863Z,58.75
2023-03-15T14:09:43.041Z,58.61
2023-03-15T14:14:52.417Z,58.88
2023-03-15T14:20:10.306Z,58.61
2023-03-15T14:25:23.600Z,58.00
2023-03-15T14:30:36.465Z,58.62
2023-03-15T14:35:46.298Z,58.40
2023-03-15T14:40:52.375Z,58.09
2023-03-15T14:45:56.038Z,57.93
2023-03-15T14:51:00.283Z,57.71
2023-03-15T14:56:06.341Z,58.00
2023-03-15T15:01:23.049Z,58.03
2023-03-15T15:06:29.189Z,58.42
2023-03-15T15:11:33.711Z,58.57
2023-03-15T15:16:37.982Z,59.01
2023-03-15T15:21:43.837Z,58.93
2023-03-15T15:26:49.903Z,59.93
2023-03-15T15:31:56.347Z,60.25
2023-03-15T15:37:02.465Z,60.37
2023-03-15T15:42:06.677Z,60.32
2023-03-15T15:47:11.663Z,60.09
2023-03-15T15:52:16.364Z,60.70
2023-03-15T15:57:23.165Z,60.80
2023-03-15T16:02:27.408Z,60.64
2023-03-15T16:07:31.589Z,60.51
2023-03-15T16:12:36.760Z,60.48
2023-03-15T16:17:45.204Z,60.84
2023-03-15T16:22:57.037Z,60.79
2023-03-15T16:28:04.588Z,60.77
2023-03-15T16:33:24.368Z,60.78
2023-03-15T16:38:35.998Z,60.91
2023-03-15T16:43:43.499Z,60.87
2023-03-15T16:48:51.252Z,61.35
2023-03-15T16:54:15.008Z,61.85
2023-03-15T16:59:35.406Z,62.85
2023-03-15T17:04:45.386Z,63.46
2023-03-15T17:09:57.086Z,64.08
2023-03-15T17:15:10.116Z,64.61
2023-03-15T17:20:38.396Z,64.65
2023-03-15T17:26:00.657Z,64.67
2023-03-15T17:31:25.330Z,65.14
2023-03-15T17:36:39.977Z,65.62
2023-03-15T17:41:49.026Z,66.26
2023-03-15T17:46:54.010Z,66.75
2023-03-15T17:51:59.328Z,67.09
2023-03-15T17:57:03.574Z,67.09
2023-03-15T18:02:16.334Z,67.32
2023-03-15T18:07:19.842Z,67.71
2023-03-15T18:12:26.160Z,67.64
2023-03-15T18:17:30.005Z,68.22
2023-03-15T18:22:34.079Z,68.53
2023-03-15T18:27:37.383Z,68.49
2023-03-15T18:32:41.432Z,69.09
2023-03-15T18:37:46.253Z,69.25
2023-03-15T18:42:50.412Z,68.89
2023-03-15T18:47:54.857Z,69.71
2023-03-15T18:53:00.143Z,69.77
2023-03-15T18:58:05.690Z,70.06
2023-03-15T19:03:10.202Z,70.13
2023-03-15T19:08:14.858Z,70.13
2023-03-15T19:13:19.409Z,70.86
2023-03-15T19:18:25.236Z,70.69
2023-03-15T19:23:28.888Z,70.82
2023-03-15T19:28:35.550Z,70.86
2023-03-15T19:33:40.642Z,70.90
2023-03-15T19:38:45.106Z,71.19
2023-03-15T19:43:48.740Z,71.42
2023-03-15T19:48:52.892Z,71.62
2023-03-15T19:53:57.188Z,71.93
2023-03-15T19:59:01.536Z,71.89
2023-03-15T20:04:06.228Z,72.31
2023-03-15T20:09:12.655Z,72.41
2023-03-15T20:14:17.180Z,71.99
2023-03-15T20:19:22.189Z,72.62
2023-03-15T20:24:28.477Z,72.69
2023-03-15T20:29:33.234Z,72.56
2023-03-15T20:34:40.737Z,72.95
2023-03-15T20:39:44.622Z,72.83
2023-03-15T20:44:52.021Z,73.32
2023-03-15T20:49:56.269Z,73.35
2023-03-15T20:55:01.200Z,73.65
2023-03-15T21:00:24.943Z,73.43
2023-03-15T21:05:32.702Z,73.48
2023-03-15T21:10:38.449Z,73.65
2023-03-15T21:15:48.212Z,74.21
2023-03-15T21:21:01.360Z,74.17
2023-03-15T21:26:08.181Z,74.22
2023-03-15T21:31:13.348Z,74.29
2023-03-15T21:36:18.461Z,74.41
2023-03-15T21:41:23.694Z,74.82
2023-03-15T21:46:30.648Z,74.66
2023-03-15T21:51:35.773Z,74.91
2023-03-15T21:56:41.549Z,75.06
2023-03-15T22:01:48.910Z,75.30
2023-03-15T22:06:54.023Z,75.47
2023-03-15T22:11:58.572Z,75.14
2023-03-15T22:17:05.448Z,75.10
2023-03-15T22:22:10.653Z,75.09
2023-03-15T22:27:15.959Z,75.08
2023-03-15T22:32:20.749Z,75.04
2023-03-15T22:37:25.534Z,74.91
2023-03-15T22:42:30.133Z,75.13
2023-03-15T22:47:35.134Z,75.27
2023-03-15T22:52:39.635Z,75.46
2023-03-15T22:57:45.307Z,75.58
2023-03-15T23:02:50.007Z,75.88
2023-03-15T23:07:54.952Z,76.08
2023-03-15T23:13:01.028Z,76.09
2023-03-15T23:18:06.046Z,76.04
2023-03-15T23:23:10.721Z,76.21
2023-03-15T23:28:19.952Z,76.29
2023-03-15T23:33:26.135Z,76.36
2023-03-15T23:38:31.159Z,76.00
2023-03-15T23:43:36.111Z,76.17
2023-03-15T23:48:42.373Z,76.03
2023-03-15T23:53:46.071Z,76.06
2023-03-15T23:58:50.308Z,76.13
